Time;durP1;ratioP1;P1;durP2;ratioP2;P2;SDS_P1;SDS_P2;PMS_P1;PMS_P2;Temp;Humidity;BMP_temperature;BMP_pressure;BME280_temperature;BME280_humidity;BME280_pressure;Samples;Min_cycle;Max_cycle;Signal;HPM_P1;HPM_P2
2022/03/25 00:02:29;;;;;;;6.13;2.05;;;21.10;58.60;;;;;;4973882;28;20331;-60
2022/03/25 00:05:00;;;;;;;3.97;1.80;;;21.10;58.60;;;;;;4973760;28;20198;-59
2022/03/25 00:07:30;;;;;;;3.67;1.80;;;21.10;58.60;;;;;;4973408;28;20269;-59
2022/03/25 00:10:01;;;;;;;7.05;1.80;;;21.10;58.60;;;;;;4974276;28;20692;-61
2022/03/25 00:12:33;;;;;;;5.70;1.98;;;21.10;58.60;;;;;;4973354;28;20206;-61
2022/03/25 00:15:04;;;;;;;3.67;2.05;;;21.10;58.50;;;;;;4974064;28;20190;-61
2022/03/25 00:17:35;;;;;;;4.38;1.80;;;21.20;58.50;;;;;;4973857;28;20222;-56
2022/03/25 00:20:06;;;;;;;3.63;1.80;;;21.20;58.50;;;;;;4973860;28;20271;-60
2022/03/25 00:22:36;;;;;;;4.00;1.90;;;21.20;58.50;;;;;;4974116;28;20206;-60
2022/03/25 00:25:08;;;;;;;5.90;2.63;;;21.20;58.50;;;;;;4985767;23;20312;-59
2022/03/25 00:27:40;;;;;;;4.65;1.77;;;21.20;58.50;;;;;;4972885;28;20678;-59
2022/03/25 00:30:12;;;;;;;3.40;1.92;;;21.20;58.50;;;;;;4973364;28;20243;-60
2022/03/25 00:32:42;;;;;;;5.72;2.08;;;21.20;58.50;;;;;;4971655;28;20190;-60
2022/03/25 00:35:13;;;;;;;4.40;1.75;;;21.30;58.40;;;;;;4972304;28;20229;-59
2022/03/25 00:37:44;;;;;;;3.70;1.92;;;21.30;58.40;;;;;;4971233;28;20229;-59
2022/03/25 00:40:15;;;;;;;2.63;1.85;;;21.30;58.40;;;;;;4971836;28;20206;-59
2022/03/25 00:42:47;;;;;;;4.00;1.73;;;21.30;58.40;;;;;;4972146;28;20198;-53
2022/03/25 00:45:17;;;;;;;3.55;2.05;;;21.30;58.30;;;;;;4971397;28;20713;-58
2022/03/25 00:47:48;;;;;;;4.88;1.95;;;21.30;58.30;;;;;;4971649;28;20281;-60
2022/03/25 00:50:20;;;;;;;4.18;1.90;;;21.40;58.30;;;;;;4971171;28;20194;-59
2022/03/25 00:52:51;;;;;;;5.63;2.22;;;21.40;58.30;;;;;;4971789;28;20214;-59
2022/03/25 00:55:21;;;;;;;1.70;1.35;;;21.40;58.30;;;;;;4971682;28;20756;-59
2022/03/25 00:57:54;;;;;;;4.30;1.90;;;21.40;58.30;;;;;;4971913;28;20214;-60
2022/03/25 01:00:24;;;;;;;3.25;1.52;;;21.50;58.30;;;;;;4972935;28;20253;-58
2022/03/25 01:02:55;;;;;;;5.60;2.05;;;21.40;58.20;;;;;;4970467;28;20194;-58
2022/03/25 01:05:25;;;;;;;4.38;1.77;;;21.50;58.20;;;;;;4971035;28;20197;-59
2022/03/25 01:07:56;;;;;;;3.15;1.55;;;21.50;58.20;;;;;;4970833;28;20226;-59
2022/03/25 01:10:26;;;;;;;5.38;1.92;;;21.50;58.20;;;;;;4970792;28;20265;-56
2022/03/25 01:12:59;;;;;;;3.17;1.85;;;21.50;58.20;;;;;;4970191;28;20194;-58
2022/03/25 01:15:29;;;;;;;4.95;2.08;;;21.60;58.20;;;;;;4971277;28;20670;-59
2022/03/25 01:18:00;;;;;;;4.03;1.92;;;21.60;58.20;;;;;;4970922;28;20921;-59
2022/03/25 01:20:31;;;;;;;2.55;1.80;;;21.60;58.20;;;;;;4971241;28;20265;-58
2022/03/25 01:23:01;;;;;;;4.40;1.98;;;21.60;58.10;;;;;;4969903;28;20198;-60
2022/03/25 01:25:32;;;;;;;4.53;1.98;;;21.60;58.10;;;;;;4970855;28;20257;-59
2022/03/25 01:28:05;;;;;;;5.65;1.92;;;21.70;58.10;;;;;;4970366;28;20222;-59
2022/03/25 01:30:35;;;;;;;3.92;1.85;;;21.70;58.10;;;;;;4970833;28;20198;-59
2022/03/25 01:33:06;;;;;;;3.47;2.00;;;21.70;58.00;;;;;;4971115;28;20565;-60
2022/03/25 01:35:37;;;;;;;4.75;1.90;;;21.70;58.00;;;;;;4970253;28;20198;-57
2022/03/25 01:38:07;;;;;;;3.78;2.30;;;21.70;57.90;;;;;;4970819;28;20277;-60
2022/03/25 01:40:39;;;;;;;4.05;2.33;;;21.80;57.90;;;;;;4970382;28;20198;-61
2022/03/25 01:43:12;;;;;;;5.68;2.40;;;21.80;57.90;;;;;;4969872;28;20194;-57
2022/03/25 01:45:42;;;;;;;3.92;2.08;;;21.80;57.90;;;;;;4970160;28;20253;-60
2022/03/25 01:48:15;;;;;;;3.92;1.83;;;21.80;57.80;;;;;;4971034;28;20210;-60
2022/03/25 01:50:48;;;;;;;5.30;2.33;;;21.80;57.90;;;;;;4970804;28;21632;-60
2022/03/25 01:53:23;;;;;;;3.55;2.05;;;21.90;57.90;;;;;;4969656;28;20257;-60
2022/03/25 01:55:56;;;;;;;3.38;2.33;;;21.90;57.90;;;;;;4971126;28;20202;-60
2022/03/25 01:58:29;;;;;;;3.42;2.00;;;21.90;57.90;;;;;;4970441;28;20292;-60
2022/03/25 02:01:01;;;;;;;3.78;2.03;;;21.90;58.00;;;;;;4970599;28;20206;-56
2022/03/25 02:03:34;;;;;;;5.07;2.00;;;22.00;57.90;;;;;;4970258;28;20202;-62
2022/03/25 02:06:05;;;;;;;4.55;2.35;;;22.00;57.80;;;;;;4970862;28;20206;-59
2022/03/25 02:08:35;;;;;;;4.60;2.17;;;22.00;57.80;;;;;;4969939;28;20293;-58
2022/03/25 02:11:09;;;;;;;3.72;2.10;;;22.00;57.80;;;;;;4969875;28;20669;-60
2022/03/25 02:13:41;;;;;;;4.18;2.20;;;22.10;57.80;;;;;;4969604;28;20289;-61
2022/03/25 02:16:12;;;;;;;7.05;2.40;;;22.10;57.80;;;;;;4969942;28;20198;-59
2022/03/25 02:18:43;;;;;;;4.43;2.10;;;22.10;57.70;;;;;;4970019;28;20225;-60
2022/03/25 02:21:14;;;;;;;4.30;2.17;;;22.10;57.70;;;;;;4969937;28;20267;-61
2022/03/25 02:23:47;;;;;;;4.60;2.28;;;22.20;57.70;;;;;;4969860;28;20281;-60
2022/03/25 02:26:18;;;;;;;3.63;1.98;;;22.20;57.70;;;;;;4982453;23;20293;-59
2022/03/25 02:28:52;;;;;;;4.30;2.25;;;22.20;57.70;;;;;;4950854;28;20958;-57
2022/03/25 02:31:22;;;;;;;3.70;2.33;;;22.20;57.60;;;;;;4950768;28;20196;-57
2022/03/25 02:33:55;;;;;;;3.95;2.13;;;22.30;57.60;;;;;;4951093;28;20198;-60
2022/03/25 02:36:26;;;;;;;4.30;2.20;;;22.30;57.60;;;;;;4951096;28;20198;-60
2022/03/25 02:38:58;;;;;;;4.32;2.38;;;22.30;57.60;;;;;;4950856;28;20248;-57
2022/03/25 02:41:29;;;;;;;4.93;1.92;;;22.30;57.60;;;;;;4949910;28;20254;-58
2022/03/25 02:44:00;;;;;;;4.85;2.45;;;22.30;57.60;;;;;;4949923;28;20198;-56
2022/03/25 02:46:31;;;;;;;5.30;2.10;;;22.40;57.70;;;;;;4950726;28;20235;-57
2022/03/25 02:49:01;;;;;;;5.63;2.08;;;22.40;57.60;;;;;;4950174;28;20442;-58
2022/03/25 02:51:32;;;;;;;4.30;2.25;;;22.40;57.60;;;;;;4950921;28;20258;-54
2022/03/25 02:54:05;;;;;;;4.10;2.25;;;22.40;57.60;;;;;;4950447;28;20195;-57
2022/03/25 02:56:36;;;;;;;5.38;2.40;;;22.50;57.50;;;;;;4950448;28;20199;-55
2022/03/25 02:59:07;;;;;;;6.95;2.20;;;22.50;57.50;;;;;;4949914;28;20281;-56
2022/03/25 03:01:38;;;;;;;4.22;2.25;;;22.50;57.50;;;;;;4950533;28;20651;-57
2022/03/25 03:04:09;;;;;;;6.38;2.38;;;22.50;57.40;;;;;;4950261;28;20195;-59
2022/03/25 03:06:39;;;;;;;4.07;1.98;;;22.60;57.50;;;;;;4949888;28;20199;-56
2022/03/25 03:09:12;;;;;;;5.43;2.65;;;22.60;57.40;;;;;;4951680;28;20199;-58
2022/03/25 03:11:43;;;;;;;3.80;1.98;;;22.60;57.30;;;;;;4950676;28;20246;-58
2022/03/25 03:14:13;;;;;;;3.40;2.00;;;22.70;57.20;;;;;;4950398;28;20244;-56
2022/03/25 03:16:44;;;;;;;3.85;2.28;;;22.70;57.20;;;;;;4951037;28;20222;-56
2022/03/25 03:19:15;;;;;;;5.90;1.92;;;22.70;57.10;;;;;;4950597;28;20636;-55
2022/03/25 03:21:45;;;;;;;4.50;2.10;;;22.80;57.20;;;;;;4949564;28;20234;-55
2022/03/25 03:24:18;;;;;;;4.10;2.00;;;22.80;57.10;;;;;;4950523;28;20199;-55
2022/03/25 03:26:49;;;;;;;7.90;2.40;;;22.80;57.00;;;;;;4950835;28;20325;-56
2022/03/25 03:29:20;;;;;;;3.63;2.05;;;22.90;57.00;;;;;;4993487;23;20241;-55
2022/03/25 03:31:50;;;;;;;3.67;2.03;;;22.90;57.00;;;;;;4992381;28;20205;-57
2022/03/25 03:34:21;;;;;;;4.32;2.15;;;22.90;57.00;;;;;;4991532;28;20202;-59
2022/03/25 03:36:52;;;;;;;4.30;2.10;;;22.90;57.00;;;;;;4991230;28;20271;-58
2022/03/25 03:39:24;;;;;;;4.95;2.45;;;23.00;57.00;;;;;;4992381;28;20233;-59
2022/03/25 03:41:55;;;;;;;4.40;1.98;;;23.00;57.10;;;;;;4992084;28;20541;-54
2022/03/25 03:44:25;;;;;;;5.22;2.22;;;23.00;57.00;;;;;;4992695;28;20613;-60
2022/03/25 03:46:56;;;;;;;3.47;2.25;;;23.10;56.90;;;;;;4992620;28;20210;-59
2022/03/25 03:49:26;;;;;;;6.13;2.30;;;23.10;56.80;;;;;;4992169;28;20190;-60
2022/03/25 03:51:57;;;;;;;3.03;1.90;;;23.10;56.80;;;;;;4992930;28;20280;-59
2022/03/25 03:54:30;;;;;;;3.50;1.90;;;23.20;56.90;;;;;;4992384;28;20326;-56
2022/03/25 03:57:00;;;;;;;3.83;1.90;;;23.20;56.80;;;;;;4992878;28;20264;-59
2022/03/25 03:59:31;;;;;;;3.20;1.80;;;23.30;56.50;;;;;;4990236;28;20555;-60
2022/03/25 04:02:03;;;;;;;4.50;2.10;;;23.30;56.40;;;;;;4992466;28;20193;-56
2022/03/25 04:04:33;;;;;;;6.15;2.08;;;23.30;56.20;;;;;;4990990;28;20272;-60
2022/03/25 04:07:04;;;;;;;4.60;2.38;;;23.30;56.20;;;;;;4991848;28;20221;-59
2022/03/25 04:09:38;;;;;;;5.30;2.10;;;23.40;56.20;;;;;;4991876;28;20258;-60
2022/03/25 04:12:10;;;;;;;4.20;1.98;;;23.40;56.20;;;;;;4989914;28;20193;-59
2022/03/25 04:14:40;;;;;;;4.82;2.00;;;23.40;56.20;;;;;;4991979;28;20194;-54
2022/03/25 04:17:11;;;;;;;4.97;1.90;;;23.40;56.30;;;;;;4991331;28;20217;-59
2022/03/25 04:19:42;;;;;;;4.35;1.70;;;23.50;56.30;;;;;;4991388;28;20221;-58
2022/03/25 04:22:12;;;;;;;4.68;2.13;;;23.50;56.20;;;;;;4991845;28;20256;-58
2022/03/25 04:24:44;;;;;;;4.22;2.05;;;23.50;56.30;;;;;;4991809;28;20728;-58
2022/03/25 04:27:15;;;;;;;3.72;1.83;;;23.50;56.00;;;;;;4990931;28;20272;-58
2022/03/25 04:29:46;;;;;;;4.80;2.30;;;23.50;56.00;;;;;;5003567;22;20715;-58
2022/03/25 04:32:16;;;;;;;4.50;2.10;;;23.50;56.00;;;;;;4991555;28;20248;-58
2022/03/25 04:34:47;;;;;;;4.35;2.08;;;23.60;56.00;;;;;;4990637;28;20197;-53
2022/03/25 04:37:18;;;;;;;3.83;2.10;;;23.60;56.00;;;;;;4991708;28;20275;-57
2022/03/25 04:39:50;;;;;;;4.43;2.03;;;23.60;56.00;;;;;;4991418;28;20276;-52
2022/03/25 04:42:21;;;;;;;4.13;1.98;;;23.70;56.10;;;;;;4990973;28;20653;-55
2022/03/25 04:44:51;;;;;;;4.63;2.22;;;23.70;56.00;;;;;;4991076;28;20193;-57
2022/03/25 04:47:22;;;;;;;2.92;1.98;;;23.70;56.00;;;;;;4991935;28;20232;-58
2022/03/25 04:49:52;;;;;;;5.97;2.38;;;23.70;55.90;;;;;;4991204;28;20951;-56
2022/03/25 04:52:23;;;;;;;5.50;2.10;;;23.80;55.90;;;;;;4990857;28;20193;-52
2022/03/25 04:54:55;;;;;;;6.85;2.40;;;23.80;55.80;;;;;;4991289;28;20279;-57
2022/03/25 04:57:26;;;;;;;3.75;2.00;;;23.80;55.80;;;;;;4990832;28;20225;-58
2022/03/25 04:59:57;;;;;;;4.05;2.22;;;23.90;55.80;;;;;;4990476;28;20233;-57
2022/03/25 05:02:28;;;;;;;3.70;1.90;;;23.90;55.80;;;;;;4990670;28;20212;-58
2022/03/25 05:04:58;;;;;;;3.50;2.05;;;23.90;55.60;;;;;;4988977;28;20192;-56
2022/03/25 05:07:29;;;;;;;3.70;1.80;;;23.90;55.50;;;;;;4990628;28;20596;-51
2022/03/25 05:10:03;;;;;;;4.03;1.98;;;24.00;55.60;;;;;;4989449;28;20194;-58
2022/03/25 05:12:33;;;;;;;5.28;2.20;;;24.00;55.30;;;;;;4990323;28;20216;-54
2022/03/25 05:15:04;;;;;;;4.35;1.80;;;24.00;55.20;;;;;;4990661;28;20271;-56
2022/03/25 05:17:35;;;;;;;4.13;2.20;;;24.00;55.20;;;;;;4989943;28;20591;-52
2022/03/25 05:20:08;;;;;;;4.75;2.30;;;24.00;54.80;;;;;;4987380;28;20466;-54
2022/03/25 05:22:39;;;;;;;3.45;2.20;;;24.00;54.70;;;;;;4989560;28;20201;-50
2022/03/25 05:25:12;;;;;;;5.07;2.40;;;24.00;55.30;;;;;;4990303;28;20217;-50
2022/03/25 05:30:14;;;;;;;5.38;2.35;;;24.00;54.70;;;;;;4969316;28;20217;-59
2022/03/25 05:32:44;;;;;;;6.03;2.70;;;24.00;54.70;;;;;;4971050;28;20194;-58
2022/03/25 05:35:15;;;;;;;6.35;2.90;;;24.00;54.60;;;;;;4968360;28;20194;-58
2022/03/25 05:37:45;;;;;;;5.72;2.25;;;24.00;54.50;;;;;;4970336;28;20218;-59
2022/03/25 05:40:18;;;;;;;6.60;2.47;;;24.00;54.30;;;;;;4969885;28;20741;-57
2022/03/25 05:42:50;;;;;;;4.70;2.55;;;24.00;54.20;;;;;;4970802;28;20721;-59
2022/03/25 05:45:22;;;;;;;6.03;2.35;;;24.00;54.00;;;;;;4970619;28;20245;-57
2022/03/25 05:47:53;;;;;;;5.18;2.30;;;24.00;54.00;;;;;;4970554;28;20218;-58
2022/03/25 05:50:23;;;;;;;7.05;2.80;;;24.00;54.30;;;;;;4970324;28;20261;-57
2022/03/25 05:52:54;;;;;;;4.80;2.83;;;24.00;54.20;;;;;;4969754;28;20555;-58
2022/03/25 05:55:26;;;;;;;4.60;2.58;;;24.00;54.20;;;;;;4970332;28;20635;-58
2022/03/25 05:57:57;;;;;;;8.73;2.70;;;24.00;54.20;;;;;;4968702;28;20213;-59
2022/03/25 06:00:28;;;;;;;6.07;2.67;;;24.00;53.90;;;;;;4969197;28;20262;-57
2022/03/25 06:02:58;;;;;;;5.13;2.40;;;24.00;54.00;;;;;;4969062;28;20252;-58
2022/03/25 06:05:29;;;;;;;9.27;2.63;;;24.00;53.90;;;;;;4968920;28;20554;-59
2022/03/25 06:07:59;;;;;;;5.05;2.42;;;24.00;53.60;;;;;;4969559;28;20218;-55
2022/03/25 06:10:32;;;;;;;4.60;2.42;;;24.00;53.50;;;;;;4970056;28;20873;-59
2022/03/25 06:13:03;;;;;;;6.20;2.47;;;24.00;53.60;;;;;;4969114;28;20289;-59
2022/03/25 06:15:33;;;;;;;5.15;2.40;;;24.00;53.80;;;;;;4969977;28;20194;-59
2022/03/25 06:18:04;;;;;;;4.47;2.60;;;24.00;53.90;;;;;;4970731;28;20222;-57
2022/03/25 06:20:35;;;;;;;5.70;2.30;;;24.00;53.80;;;;;;4969635;28;20853;-59
2022/03/25 06:23:05;;;;;;;5.57;2.28;;;24.00;53.90;;;;;;4970316;28;20194;-58
2022/03/25 06:25:38;;;;;;;5.93;2.00;;;24.00;53.90;;;;;;4969689;28;20764;-58
2022/03/25 06:28:09;;;;;;;4.57;2.28;;;23.90;53.90;;;;;;4970124;28;20262;-59
2022/03/25 06:30:41;;;;;;;4.68;2.33;;;23.90;54.00;;;;;;4969048;28;20273;-57
2022/03/25 06:33:12;;;;;;;5.55;2.00;;;23.90;54.10;;;;;;4970003;28;20202;-58
2022/03/25 06:35:44;;;;;;;3.95;1.88;;;23.90;54.20;;;;;;4967189;28;20273;-59
2022/03/25 06:38:14;;;;;;;6.28;2.63;;;23.90;54.30;;;;;;4969796;28;20232;-55
2022/03/25 06:40:47;;;;;;;3.97;1.98;;;23.90;54.20;;;;;;4969628;28;20714;-60
2022/03/25 06:43:18;;;;;;;5.30;2.78;;;23.90;54.20;;;;;;4969619;28;20194;-59
2022/03/25 06:45:48;;;;;;;6.15;2.35;;;23.80;54.20;;;;;;4968806;28;20249;-57
2022/03/25 06:48:19;;;;;;;4.13;2.40;;;23.80;54.00;;;;;;4969342;28;20222;-58
2022/03/25 06:50:50;;;;;;;4.45;2.20;;;23.80;54.00;;;;;;4969438;28;20202;-59
2022/03/25 06:53:20;;;;;;;6.30;2.40;;;23.80;54.10;;;;;;4969409;28;20194;-59
2022/03/25 06:55:54;;;;;;;4.15;2.20;;;23.80;54.00;;;;;;4969916;28;20194;-59
2022/03/25 06:58:25;;;;;;;6.40;2.63;;;23.80;54.10;;;;;;4969630;28;20261;-58
2022/03/25 07:00:56;;;;;;;5.45;2.28;;;23.70;54.10;;;;;;4962035;28;20226;-58
2022/03/25 07:03:27;;;;;;;5.38;2.15;;;23.70;54.10;;;;;;4956522;28;20195;-56
2022/03/25 07:06:00;;;;;;;3.15;2.00;;;23.70;54.10;;;;;;4954737;28;20199;-58
2022/03/25 07:08:31;;;;;;;3.53;1.80;;;23.70;54.10;;;;;;4954335;28;20261;-56
2022/03/25 07:11:05;;;;;;;3.67;1.92;;;23.70;54.20;;;;;;4953948;28;20199;-59
2022/03/25 07:13:36;;;;;;;5.18;2.30;;;23.70;54.30;;;;;;4955603;28;20195;-57
2022/03/25 07:16:07;;;;;;;4.93;1.88;;;23.70;54.40;;;;;;4953309;28;20246;-59
2022/03/25 07:18:38;;;;;;;3.35;2.10;;;23.70;54.40;;;;;;4954838;28;20548;-59
2022/03/25 07:21:08;;;;;;;4.18;2.17;;;23.60;54.40;;;;;;4955025;28;20250;-59
2022/03/25 07:23:39;;;;;;;4.82;2.13;;;23.60;54.50;;;;;;4955098;28;20750;-59
2022/03/25 07:26:11;;;;;;;3.33;1.92;;;23.60;54.40;;;;;;4955165;28;20668;-59
2022/03/25 07:28:42;;;;;;;5.68;2.20;;;23.60;54.30;;;;;;4955195;28;20282;-55
2022/03/25 07:31:12;;;;;;;4.68;2.13;;;23.50;54.00;;;;;;4954663;28;20195;-57
2022/03/25 07:33:43;;;;;;;4.45;1.90;;;23.50;53.90;;;;;;4954822;28;20211;-58
2022/03/25 07:36:14;;;;;;;4.07;2.20;;;23.50;54.00;;;;;;4954578;28;20191;-59
2022/03/25 07:38:44;;;;;;;3.28;1.83;;;23.50;54.10;;;;;;4954795;28;20214;-57
2022/03/25 07:41:17;;;;;;;6.28;2.58;;;23.50;54.20;;;;;;4954790;28;20227;-58
2022/03/25 07:43:48;;;;;;;6.28;2.22;;;23.50;54.30;;;;;;4954709;28;20203;-59
2022/03/25 07:46:19;;;;;;;4.38;2.25;;;23.40;54.20;;;;;;4954594;28;20670;-59
2022/03/25 07:48:49;;;;;;;5.60;2.17;;;23.40;54.20;;;;;;4954974;28;20224;-57
2022/03/25 07:51:20;;;;;;;7.15;2.65;;;23.40;54.30;;;;;;4954558;28;20281;-56
2022/03/25 07:53:50;;;;;;;6.18;2.50;;;23.40;54.40;;;;;;4954680;28;20202;-58
2022/03/25 07:56:23;;;;;;;6.00;2.45;;;23.40;54.40;;;;;;4954668;28;20191;-56
2022/03/25 07:58:53;;;;;;;7.05;2.60;;;23.30;54.50;;;;;;4953953;28;20614;-59
2022/03/25 08:01:24;;;;;;;9.48;2.67;;;23.30;54.50;;;;;;4953631;28;20227;-57
2022/03/25 08:03:55;;;;;;;7.75;2.70;;;23.30;54.60;;;;;;4953818;28;20202;-58
2022/03/25 08:06:26;;;;;;;4.18;2.50;;;23.30;54.60;;;;;;4954210;28;20649;-59
2022/03/25 08:08:59;;;;;;;5.78;2.47;;;23.30;54.60;;;;;;4953924;28;20651;-58
2022/03/25 08:11:31;;;;;;;7.05;2.63;;;23.30;54.80;;;;;;4954063;28;20202;-59
2022/03/25 08:14:02;;;;;;;7.53;2.10;;;23.30;54.80;;;;;;4953837;28;20203;-59
2022/03/25 08:16:32;;;;;;;9.52;2.83;;;23.20;54.70;;;;;;4953817;28;20548;-59
2022/03/25 08:19:03;;;;;;;8.77;2.83;;;23.20;54.60;;;;;;4953661;28;20199;-54
2022/03/25 08:21:33;;;;;;;8.88;3.20;;;23.10;54.50;;;;;;4953314;28;20281;-58
2022/03/25 08:29:39;;;;;;;9.77;3.30;;;23.10;54.40;;;;;;4954575;28;20210;-56
2022/03/25 08:32:10;;;;;;;10.10;3.50;;;23.00;54.40;;;;;;4953411;28;20199;-58
2022/03/25 08:34:40;;;;;;;7.50;3.42;;;23.00;54.40;;;;;;4953595;28;20258;-58
2022/03/25 08:37:11;;;;;;;8.32;3.63;;;23.00;54.40;;;;;;4953968;28;20215;-59
2022/03/25 08:39:42;;;;;;;12.00;4.25;;;23.00;54.50;;;;;;4953704;28;20195;-59
2022/03/25 08:42:15;;;;;;;12.77;4.85;;;22.90;54.40;;;;;;4953436;28;20231;-58
2022/03/25 08:44:46;;;;;;;15.80;4.57;;;22.90;54.50;;;;;;4953738;28;20199;-59
2022/03/25 08:47:18;;;;;;;11.02;4.20;;;22.90;54.50;;;;;;4953157;28;20241;-56
2022/03/25 08:49:49;;;;;;;14.07;4.47;;;22.90;54.60;;;;;;4953375;28;20254;-58
2022/03/25 08:52:20;;;;;;;12.32;4.90;;;22.90;54.60;;;;;;4953399;28;20206;-59
2022/03/25 08:54:51;;;;;;;12.82;4.28;;;22.90;54.60;;;;;;4953088;28;20199;-59
2022/03/25 08:57:24;;;;;;;14.63;4.60;;;22.80;54.50;;;;;;4962990;28;20222;-55
2022/03/25 08:59:54;;;;;;;15.45;4.57;;;22.80;54.50;;;;;;4970977;28;20228;-59
2022/03/25 09:02:25;;;;;;;9.88;4.35;;;22.80;54.60;;;;;;4968025;28;20701;-57
2022/03/25 09:04:55;;;;;;;10.50;4.00;;;22.80;54.60;;;;;;4969980;28;20717;-58
2022/03/25 09:07:26;;;;;;;12.70;4.22;;;22.80;54.70;;;;;;4970579;28;20288;-59
2022/03/25 09:09:56;;;;;;;12.45;4.20;;;22.70;54.50;;;;;;4969269;28;20198;-59
2022/03/25 09:12:29;;;;;;;14.05;4.20;;;22.70;54.60;;;;;;4967761;28;20257;-59
2022/03/25 09:14:59;;;;;;;11.85;4.10;;;22.60;54.50;;;;;;4971062;28;20194;-58
2022/03/25 09:17:30;;;;;;;15.35;4.78;;;22.60;54.60;;;;;;4970350;28;20218;-59
2022/03/25 09:20:02;;;;;;;12.63;4.63;;;22.60;54.60;;;;;;4971170;28;20190;-58
2022/03/25 09:22:33;;;;;;;15.55;4.50;;;22.60;54.60;;;;;;4970501;28;20914;-59
2022/03/25 09:25:06;;;;;;;9.35;4.00;;;22.50;54.60;;;;;;4969872;28;20195;-58
2022/03/25 09:27:39;;;;;;;12.63;4.30;;;22.50;54.60;;;;;;4971061;28;20618;-59
2022/03/25 09:30:11;;;;;;;11.63;4.05;;;22.50;54.60;;;;;;4971174;28;20218;-57
2022/03/25 09:32:42;;;;;;;11.93;3.83;;;22.50;54.70;;;;;;4995114;23;20229;-59
2022/03/25 09:35:13;;;;;;;10.52;4.10;;;22.40;54.70;;;;;;4986892;28;20193;-56
2022/03/25 09:37:45;;;;;;;12.18;4.03;;;22.40;54.70;;;;;;4990221;28;20220;-57
2022/03/25 09:40:18;;;;;;;12.77;4.63;;;22.40;54.70;;;;;;4986854;28;20233;-56
2022/03/25 09:42:52;;;;;;;11.93;4.47;;;22.40;54.70;;;;;;4989354;28;20324;-56
2022/03/25 09:45:24;;;;;;;8.57;3.85;;;22.30;54.70;;;;;;4989163;28;20277;-56
2022/03/25 09:47:55;;;;;;;9.45;4.00;;;22.30;54.70;;;;;;4987844;28;20225;-56
2022/03/25 09:50:27;;;;;;;10.25;4.15;;;22.30;54.70;;;;;;4988712;28;20190;-56
2022/03/25 09:52:58;;;;;;;7.85;3.50;;;22.20;54.70;;;;;;4990216;28;20665;-56
2022/03/25 09:55:31;;;;;;;10.85;3.97;;;22.30;54.80;;;;;;4989977;28;20253;-56
2022/03/25 09:58:03;;;;;;;10.80;4.00;;;22.20;54.80;;;;;;4988930;28;20229;-57
2022/03/25 10:00:34;;;;;;;9.68;3.67;;;22.20;54.80;;;;;;4989349;28;20964;-56
2022/03/25 10:03:05;;;;;;;10.85;4.18;;;22.20;54.80;;;;;;4989436;28;20213;-56
2022/03/25 10:05:35;;;;;;;8.93;3.40;;;22.20;54.90;;;;;;4988549;28;20190;-56
2022/03/25 10:08:06;;;;;;;8.40;3.60;;;22.10;54.90;;;;;;4989285;28;20283;-56
2022/03/25 10:10:41;;;;;;;11.32;3.55;;;22.10;54.90;;;;;;4989205;28;20220;-56
2022/03/25 10:13:23;;;;;;;7.50;3.35;;;22.00;54.90;;;;;;4988820;28;20189;-56
2022/03/25 10:15:56;;;;;;;8.20;3.28;;;22.00;54.90;;;;;;4989519;28;20201;-56
2022/03/25 10:18:27;;;;;;;13.50;3.95;;;22.00;54.90;;;;;;4989221;28;20217;-56
2022/03/25 10:20:57;;;;;;;9.20;3.83;;;22.00;55.00;;;;;;4989943;28;20264;-56
2022/03/25 10:23:28;;;;;;;8.02;3.55;;;22.00;55.00;;;;;;4989524;28;20236;-56
2022/03/25 10:26:00;;;;;;;8.77;3.60;;;21.90;55.60;;;;;;4989805;28;20268;-57
2022/03/25 10:28:36;;;;;;;10.32;3.78;;;21.90;55.00;;;;;;4988140;28;20213;-57
2022/03/25 10:31:11;;;;;;;7.25;3.13;;;21.90;55.00;;;;;;5002189;22;20559;-59
2022/03/25 10:33:48;;;;;;;9.25;3.72;;;21.90;55.10;;;;;;4949621;28;20218;-52
2022/03/25 10:36:20;;;;;;;9.07;3.78;;;21.80;55.00;;;;;;4950138;28;20651;-61
2022/03/25 10:38:53;;;;;;;10.15;3.90;;;21.80;55.00;;;;;;4931094;29;20203;-57
2022/03/25 10:41:27;;;;;;;8.15;3.55;;;21.80;55.00;;;;;;4931060;28;20223;-62
2022/03/25 10:44:03;;;;;;;8.85;3.60;;;21.80;55.10;;;;;;4931001;29;20254;-62
2022/03/25 10:46:38;;;;;;;8.20;4.03;;;21.70;55.00;;;;;;4930109;29;20286;-65
2022/03/25 10:49:11;;;;;;;10.57;3.90;;;21.70;55.00;;;;;;4931394;29;20206;-58
2022/03/25 10:51:45;;;;;;;9.20;3.35;;;21.70;55.00;;;;;;4930710;29;20227;-60
2022/03/25 10:54:16;;;;;;;8.00;3.10;;;21.70;55.10;;;;;;4931213;29;20206;-51
2022/03/25 10:56:49;;;;;;;7.88;3.92;;;21.60;55.10;;;;;;4931032;29;20219;-58
2022/03/25 10:59:28;;;;;;;7.25;3.80;;;21.60;55.10;;;;;;4931137;29;20283;-64
2022/03/25 11:02:00;;;;;;;7.70;3.50;;;21.60;55.10;;;;;;4930721;29;20222;-65
2022/03/25 11:04:31;;;;;;;8.95;3.03;;;21.60;55.20;;;;;;4930789;29;20203;-55
2022/03/25 11:07:03;;;;;;;8.07;3.80;;;21.50;55.10;;;;;;4930520;29;20255;-63
2022/03/25 11:09:33;;;;;;;7.50;3.38;;;21.50;55.10;;;;;;4931370;29;20198;-65
2022/03/25 11:12:04;;;;;;;7.47;3.50;;;21.50;55.20;;;;;;4930503;29;20598;-66
2022/03/25 11:14:36;;;;;;;7.10;3.83;;;21.50;55.30;;;;;;4931209;29;20200;-68
2022/03/25 11:17:11;;;;;;;6.93;3.10;;;21.40;55.20;;;;;;4930670;29;20219;-70
2022/03/25 11:19:42;;;;;;;7.22;3.20;;;21.40;55.30;;;;;;4930115;29;20222;-69
2022/03/25 11:22:14;;;;;;;7.43;3.38;;;21.40;55.30;;;;;;4930333;29;20310;-64
2022/03/25 11:24:50;;;;;;;8.80;3.65;;;21.40;55.30;;;;;;4930578;29;20789;-70
2022/03/25 11:27:29;;;;;;;10.40;3.63;;;21.40;55.30;;;;;;4931031;29;20270;-69
2022/03/25 11:30:09;;;;;;;7.38;3.47;;;21.30;55.30;;;;;;4930451;29;20203;-57
2022/03/25 11:32:51;;;;;;;8.82;2.97;;;21.30;55.30;;;;;;4931408;29;20302;-66
2022/03/25 11:35:23;;;;;;;7.45;3.25;;;21.30;55.30;;;;;;4930502;29;20254;-62
2022/03/25 11:38:18;;;;;;;5.45;3.10;;;21.30;55.30;;;;;;4930518;29;20223;-61
2022/03/25 11:40:49;;;;;;;6.90;3.05;;;21.20;55.30;;;;;;4930093;29;20195;-54
2022/03/25 11:43:20;;;;;;;5.82;2.90;;;21.20;55.30;;;;;;4931216;29;20287;-69
2022/03/25 11:48:47;;;;;;;7.28;2.92;;;21.20;55.30;;;;;;5086670;27;20710;-63
2022/03/25 11:51:37;;;;;;;7.70;3.63;;;21.20;55.40;;;;;;5088643;28;20203;-64
2022/03/25 11:54:37;;;;;;;7.05;3.30;;;21.10;55.30;;;;;;5088409;28;20255;-63
2022/03/25 11:57:23;;;;;;;6.00;3.05;;;21.10;55.30;;;;;;5024235;28;20274;-59
2022/03/25 11:59:55;;;;;;;6.43;2.78;;;21.10;55.30;;;;;;5081448;28;20194;-71
2022/03/25 12:02:35;;;;;;;6.63;3.10;;;21.10;55.40;;;;;;5087046;28;20690;-67
2022/03/25 12:05:28;;;;;;;8.50;3.65;;;21.00;55.30;;;;;;5072324;28;20720;-69
2022/03/25 12:08:27;;;;;;;8.02;3.50;;;21.00;55.40;;;;;;5066792;28;20753;-69
2022/03/25 12:10:59;;;;;;;6.88;3.10;;;21.00;55.40;;;;;;5066845;28;20191;-67
2022/03/25 12:14:11;;;;;;;5.55;2.70;;;21.00;55.40;;;;;;5066708;28;20244;-70
2022/03/25 12:16:59;;;;;;;7.38;2.92;;;20.90;55.40;;;;;;5066394;28;20667;-69
2022/03/25 12:19:54;;;;;;;5.57;2.80;;;20.90;55.40;;;;;;5065966;28;20191;-68
2022/03/25 12:22:35;;;;;;;5.90;2.95;;;20.90;55.40;;;;;;5066547;28;20190;-70
2022/03/25 12:25:23;;;;;;;5.75;2.65;;;20.90;55.50;;;;;;5066347;28;20394;-57
2022/03/25 12:27:57;;;;;;;6.22;3.15;;;20.80;55.50;;;;;;5066315;28;20237;-66
2022/03/25 12:30:38;;;;;;;6.32;3.00;;;20.80;55.50;;;;;;5066520;28;20195;-68
2022/03/25 12:33:13;;;;;;;4.95;2.80;;;20.80;55.50;;;;;;5066651;28;20199;-66
2022/03/25 12:35:46;;;;;;;5.80;2.78;;;20.80;55.60;;;;;;5065649;28;20208;-64
2022/03/25 12:38:26;;;;;;;5.55;2.67;;;20.80;55.60;;;;;;5065980;28;20280;-69
2022/03/25 12:40:57;;;;;;;5.68;2.90;;;20.70;55.60;;;;;;5066246;28;20712;-67
2022/03/25 12:43:33;;;;;;;6.50;2.70;;;20.70;55.50;;;;;;5065820;28;20253;-70
2022/03/25 12:46:12;;;;;;;4.57;2.38;;;20.70;55.60;;;;;;5066062;28;20700;-67
2022/03/25 12:48:43;;;;;;;5.68;2.50;;;20.70;55.60;;;;;;5065615;28;20584;-70
2022/03/25 12:51:16;;;;;;;5.35;2.67;;;20.70;55.60;;;;;;5065256;28;20654;-69
2022/03/25 12:53:49;;;;;;;7.78;2.85;;;20.70;55.60;;;;;;5065650;28;20206;-68
2022/03/25 12:56:20;;;;;;;5.90;2.35;;;20.60;55.50;;;;;;5065640;28;20195;-64
2022/03/25 12:58:52;;;;;;;6.20;2.70;;;20.60;55.50;;;;;;5059068;28;20281;-70
2022/03/25 13:01:23;;;;;;;4.38;2.47;;;20.60;55.60;;;;;;5051996;28;20195;-65
2022/03/25 13:03:54;;;;;;;5.50;2.60;;;20.60;55.60;;;;;;5052391;28;20273;-65
2022/03/25 13:06:26;;;;;;;10.55;3.00;;;20.60;55.60;;;;;;5052028;28;20291;-64
2022/03/25 13:09:06;;;;;;;7.53;2.83;;;20.50;55.60;;;;;;5052308;28;20223;-69
2022/03/25 13:11:36;;;;;;;7.05;2.60;;;20.50;55.60;;;;;;5051425;28;20864;-68
2022/03/25 13:14:16;;;;;;;6.72;2.67;;;20.50;55.60;;;;;;5051804;28;20183;-70
2022/03/25 13:16:50;;;;;;;7.18;2.97;;;20.50;55.60;;;;;;5052107;28;20637;-68
2022/03/25 13:19:30;;;;;;;3.90;2.45;;;20.50;55.60;;;;;;5051584;28;20562;-69
2022/03/25 13:22:15;;;;;;;4.93;2.72;;;20.50;55.60;;;;;;5051539;28;20199;-68
2022/03/25 13:25:01;;;;;;;8.32;2.67;;;20.40;55.60;;;;;;5052184;28;20195;-68